This is the latest recevied weather packets stored in our database for station/object JG6YPS-13. If no packets are shown the sender has not sent any weather packets the latest 1 day(s).
| Time | Temp. | Humidity | Pressure | Rain* | Wind** | Luminosity | Snow |
|---|---|---|---|---|---|---|---|
| 1778045765 | 26.11° C | 54% | 1015.9 hPa | 0 mm | 0.89 m/s, 225° | - | - |
| 1778045165 | 26.11° C | 54% | 1016.1 hPa | 0 mm | 0.89 m/s, 180° | - | - |
| 1778044564 | 26.67° C | 52% | 1016.2 hPa | 0 mm | 0.89 m/s, 135° | - | - |
| 1778043964 | 27.22° C | 53% | 1016.1 hPa | 0 mm | 1.79 m/s, 180° | - | - |
| 1778043364 | 26.11° C | 56% | 1016.4 hPa | 0 mm | 0 m/s | - | - |
| 1778042764 | 25.56° C | 56% | 1016.2 hPa | 0 mm | 0 m/s | - | - |
| 1778042164 | 26.11° C | 55% | 1016.5 hPa | 0 mm | 0.45 m/s, 180° | - | - |
| 1778041564 | 26.11° C | 53% | 1016.3 hPa | 0 mm | 0.45 m/s, 135° | - | - |
| 1778040964 | 27.22° C | 53% | 1016.3 hPa | 0 mm | 0.89 m/s, 90° | - | - |
| 1778040364 | 26.11° C | 56% | 1016.5 hPa | 0 mm | 0.45 m/s, 45° | - | - |
| 1778039764 | 26.11° C | 54% | 1016.9 hPa | 0 mm | 0.45 m/s, 135° | - | - |
| 1778039164 | 24.44° C | 58% | 1017 hPa | 0 mm | 0.45 m/s, 135° | - | - |
| 1778038564 | 24.44° C | 58% | 1017 hPa | 0 mm | 0.45 m/s, 135° | - | - |
| 1778037964 | 24.44° C | 58% | 1017.3 hPa | 0 mm | 0.45 m/s, 135° | - | - |
| 1778037364 | 23.89° C | 60% | 1017.2 hPa | 0 mm | 0.89 m/s, 225° | - | - |
| 1778036764 | 23.33° C | 62% | 1017.6 hPa | 0 mm | 0.45 m/s, 135° | - | - |
| 1778036164 | 23.33° C | 60% | 1017.5 hPa | 0 mm | 0.89 m/s, 135° | - | - |
| 1778035565 | 23.33° C | 60% | 1017.6 hPa | 0 mm | 0.89 m/s, 45° | - | - |
| 1778034965 | 24.44° C | 58% | 1017.5 hPa | 0 mm | 0.89 m/s, 270° | - | - |
| 1778034365 | 23.33° C | 61% | 1017.7 hPa | 0 mm | 0 m/s | - | - |
| 1778033765 | 23.33° C | 61% | 1018 hPa | 0 mm | 0.89 m/s, 45° | - | - |
| 1778033165 | 22.22° C | 64% | 1017.9 hPa | 0 mm | 0 m/s | - | - |
| 1778032565 | 22.22° C | 63% | 1018.2 hPa | 0 mm | 0 m/s | - | - |
| 1778031966 | 22.22° C | 61% | 1018.2 hPa | 0 mm | 0 m/s | - | - |
| 1778031366 | 21.67° C | 61% | 1018.7 hPa | 0 mm | 0 m/s | - | - |
* Rain latest hour (hover to see other rain measurements)
** Current wind speed in m/s (hover to see current wind gust speed)